sensor_id;sensor_type;location;lat;lon;timestamp;P1;durP1;ratioP1;P2;durP2;ratioP2
3922;SDS011;1976;51.694;6.256;2023-07-28T00:01:31;0.60;;;0.60;;
3922;SDS011;1976;51.694;6.256;2023-07-28T00:03:56;0.60;;;0.60;;
3922;SDS011;1976;51.694;6.256;2023-07-28T00:06:25;0.60;;;0.60;;
3922;SDS011;1976;51.694;6.256;2023-07-28T00:08:50;0.50;;;0.50;;
3922;SDS011;1976;51.694;6.256;2023-07-28T00:11:16;0.50;;;0.50;;
3922;SDS011;1976;51.694;6.256;2023-07-28T00:13:42;0.53;;;0.53;;
3922;SDS011;1976;51.694;6.256;2023-07-28T00:16:08;0.53;;;0.53;;
3922;SDS011;1976;51.694;6.256;2023-07-28T00:18:34;0.50;;;0.50;;
3922;SDS011;1976;51.694;6.256;2023-07-28T00:21:01;0.60;;;0.60;;
3922;SDS011;1976;51.694;6.256;2023-07-28T00:23:27;0.50;;;0.50;;
3922;SDS011;1976;51.694;6.256;2023-07-28T00:25:53;0.60;;;0.60;;
3922;SDS011;1976;51.694;6.256;2023-07-28T00:28:19;0.53;;;0.53;;
3922;SDS011;1976;51.694;6.256;2023-07-28T00:30:48;0.50;;;0.50;;
3922;SDS011;1976;51.694;6.256;2023-07-28T00:33:15;0.57;;;0.57;;
3922;SDS011;1976;51.694;6.256;2023-07-28T00:35:40;0.50;;;0.50;;
3922;SDS011;1976;51.694;6.256;2023-07-28T00:38:06;0.50;;;0.50;;
3922;SDS011;1976;51.694;6.256;2023-07-28T00:40:32;0.50;;;0.50;;
3922;SDS011;1976;51.694;6.256;2023-07-28T00:42:57;0.50;;;0.50;;
3922;SDS011;1976;51.694;6.256;2023-07-28T00:45:23;0.60;;;0.60;;
3922;SDS011;1976;51.694;6.256;2023-07-28T00:47:49;0.60;;;0.60;;
3922;SDS011;1976;51.694;6.256;2023-07-28T00:50:15;0.50;;;0.50;;
3922;SDS011;1976;51.694;6.256;2023-07-28T00:52:41;0.60;;;0.60;;
3922;SDS011;1976;51.694;6.256;2023-07-28T00:55:07;0.60;;;0.60;;
3922;SDS011;1976;51.694;6.256;2023-07-28T00:57:33;0.50;;;0.50;;
3922;SDS011;1976;51.694;6.256;2023-07-28T00:59:59;0.57;;;0.57;;
3922;SDS011;1976;51.694;6.256;2023-07-28T01:02:25;0.50;;;0.50;;
3922;SDS011;1976;51.694;6.256;2023-07-28T01:04:51;0.60;;;0.60;;
3922;SDS011;1976;51.694;6.256;2023-07-28T01:07:23;0.60;;;0.60;;
3922;SDS011;1976;51.694;6.256;2023-07-28T01:12:29;0.50;;;0.50;;
3922;SDS011;1976;51.694;6.256;2023-07-28T01:14:55;0.60;;;0.60;;
3922;SDS011;1976;51.694;6.256;2023-07-28T01:17:20;0.60;;;0.60;;
3922;SDS011;1976;51.694;6.256;2023-07-28T01:19:49;0.60;;;0.60;;
3922;SDS011;1976;51.694;6.256;2023-07-28T01:25:00;0.50;;;0.50;;
3922;SDS011;1976;51.694;6.256;2023-07-28T01:27:28;0.50;;;0.50;;
3922;SDS011;1976;51.694;6.256;2023-07-28T01:29:55;0.60;;;0.60;;
3922;SDS011;1976;51.694;6.256;2023-07-28T01:32:20;0.60;;;0.60;;
3922;SDS011;1976;51.694;6.256;2023-07-28T01:34:46;0.50;;;0.50;;
3922;SDS011;1976;51.694;6.256;2023-07-28T01:37:12;0.60;;;0.60;;
3922;SDS011;1976;51.694;6.256;2023-07-28T01:39:38;0.70;;;0.70;;
3922;SDS011;1976;51.694;6.256;2023-07-28T01:42:03;0.50;;;0.50;;
3922;SDS011;1976;51.694;6.256;2023-07-28T01:44:29;0.50;;;0.50;;
3922;SDS011;1976;51.694;6.256;2023-07-28T01:46:55;0.50;;;0.50;;
3922;SDS011;1976;51.694;6.256;2023-07-28T01:49:21;0.50;;;0.50;;
3922;SDS011;1976;51.694;6.256;2023-07-28T01:51:46;0.60;;;0.60;;
3922;SDS011;1976;51.694;6.256;2023-07-28T01:54:12;0.60;;;0.60;;
3922;SDS011;1976;51.694;6.256;2023-07-28T01:56:37;0.50;;;0.50;;
3922;SDS011;1976;51.694;6.256;2023-07-28T01:59:03;0.50;;;0.50;;
3922;SDS011;1976;51.694;6.256;2023-07-28T02:01:29;0.50;;;0.50;;
3922;SDS011;1976;51.694;6.256;2023-07-28T02:03:54;0.50;;;0.50;;
3922;SDS011;1976;51.694;6.256;2023-07-28T02:06:20;0.50;;;0.50;;
3922;SDS011;1976;51.694;6.256;2023-07-28T02:08:45;0.50;;;0.50;;
3922;SDS011;1976;51.694;6.256;2023-07-28T02:11:11;1.13;;;1.00;;
3922;SDS011;1976;51.694;6.256;2023-07-28T02:13:37;0.50;;;0.50;;
3922;SDS011;1976;51.694;6.256;2023-07-28T02:16:02;0.60;;;0.60;;
3922;SDS011;1976;51.694;6.256;2023-07-28T02:18:28;0.50;;;0.50;;
3922;SDS011;1976;51.694;6.256;2023-07-28T02:20:53;0.50;;;0.50;;
3922;SDS011;1976;51.694;6.256;2023-07-28T02:23:19;0.50;;;0.50;;
3922;SDS011;1976;51.694;6.256;2023-07-28T02:25:45;1.70;;;1.60;;
3922;SDS011;1976;51.694;6.256;2023-07-28T02:28:10;0.50;;;0.50;;
3922;SDS011;1976;51.694;6.256;2023-07-28T02:30:37;0.50;;;0.50;;
3922;SDS011;1976;51.694;6.256;2023-07-28T02:33:03;0.60;;;0.60;;
3922;SDS011;1976;51.694;6.256;2023-07-28T02:35:28;0.70;;;0.70;;
3922;SDS011;1976;51.694;6.256;2023-07-28T02:37:54;0.60;;;0.60;;
3922;SDS011;1976;51.694;6.256;2023-07-28T02:40:20;0.80;;;0.80;;
3922;SDS011;1976;51.694;6.256;2023-07-28T02:42:45;0.60;;;0.60;;
3922;SDS011;1976;51.694;6.256;2023-07-28T02:45:11;0.50;;;0.50;;
3922;SDS011;1976;51.694;6.256;2023-07-28T02:47:37;0.60;;;0.60;;
3922;SDS011;1976;51.694;6.256;2023-07-28T02:50:02;0.50;;;0.50;;
3922;SDS011;1976;51.694;6.256;2023-07-28T02:52:28;3.90;;;0.83;;
3922;SDS011;1976;51.694;6.256;2023-07-28T02:54:55;0.50;;;0.50;;
3922;SDS011;1976;51.694;6.256;2023-07-28T02:57:20;0.60;;;0.60;;
3922;SDS011;1976;51.694;6.256;2023-07-28T02:59:46;0.60;;;0.60;;
3922;SDS011;1976;51.694;6.256;2023-07-28T03:02:12;0.60;;;0.60;;
3922;SDS011;1976;51.694;6.256;2023-07-28T03:04:37;0.60;;;0.60;;
3922;SDS011;1976;51.694;6.256;2023-07-28T03:07:03;0.50;;;0.50;;
3922;SDS011;1976;51.694;6.256;2023-07-28T03:09:28;0.60;;;0.60;;
3922;SDS011;1976;51.694;6.256;2023-07-28T03:11:54;0.60;;;0.60;;
3922;SDS011;1976;51.694;6.256;2023-07-28T03:14:20;0.60;;;0.60;;
3922;SDS011;1976;51.694;6.256;2023-07-28T03:16:45;0.57;;;0.57;;
3922;SDS011;1976;51.694;6.256;2023-07-28T03:19:11;0.57;;;0.57;;
3922;SDS011;1976;51.694;6.256;2023-07-28T03:21:36;0.50;;;0.50;;
3922;SDS011;1976;51.694;6.256;2023-07-28T03:24:02;0.60;;;0.60;;
3922;SDS011;1976;51.694;6.256;2023-07-28T03:26:28;0.50;;;0.50;;
3922;SDS011;1976;51.694;6.256;2023-07-28T03:28:53;0.60;;;0.60;;
3922;SDS011;1976;51.694;6.256;2023-07-28T03:31:19;0.60;;;0.60;;
3922;SDS011;1976;51.694;6.256;2023-07-28T03:33:45;0.50;;;0.50;;
3922;SDS011;1976;51.694;6.256;2023-07-28T03:36:10;0.60;;;0.60;;
3922;SDS011;1976;51.694;6.256;2023-07-28T03:38:36;0.60;;;0.60;;
3922;SDS011;1976;51.694;6.256;2023-07-28T03:41:02;0.57;;;0.57;;
3922;SDS011;1976;51.694;6.256;2023-07-28T03:43:27;1.37;;;1.27;;
3922;SDS011;1976;51.694;6.256;2023-07-28T03:45:53;0.50;;;0.50;;
3922;SDS011;1976;51.694;6.256;2023-07-28T03:48:19;0.60;;;0.60;;
3922;SDS011;1976;51.694;6.256;2023-07-28T03:50:44;0.60;;;0.60;;
3922;SDS011;1976;51.694;6.256;2023-07-28T03:53:10;0.70;;;0.70;;
3922;SDS011;1976;51.694;6.256;2023-07-28T03:55:36;0.60;;;0.60;;
3922;SDS011;1976;51.694;6.256;2023-07-28T03:58:01;0.50;;;0.50;;
3922;SDS011;1976;51.694;6.256;2023-07-28T04:00:27;0.50;;;0.50;;
3922;SDS011;1976;51.694;6.256;2023-07-28T04:02:54;0.53;;;0.53;;
3922;SDS011;1976;51.694;6.256;2023-07-28T04:05:19;0.60;;;0.50;;
3922;SDS011;1976;51.694;6.256;2023-07-28T04:07:45;0.50;;;0.50;;
3922;SDS011;1976;51.694;6.256;2023-07-28T04:10:10;0.60;;;0.60;;
3922;SDS011;1976;51.694;6.256;2023-07-28T04:12:36;0.50;;;0.50;;
3922;SDS011;1976;51.694;6.256;2023-07-28T04:15:02;0.87;;;0.87;;
3922;SDS011;1976;51.694;6.256;2023-07-28T04:17:28;0.60;;;0.60;;
3922;SDS011;1976;51.694;6.256;2023-07-28T04:19:53;0.50;;;0.50;;
3922;SDS011;1976;51.694;6.256;2023-07-28T04:22:19;0.60;;;0.60;;
3922;SDS011;1976;51.694;6.256;2023-07-28T04:24:46;0.60;;;0.60;;
3922;SDS011;1976;51.694;6.256;2023-07-28T04:27:13;0.50;;;0.50;;
3922;SDS011;1976;51.694;6.256;2023-07-28T04:29:39;0.53;;;0.53;;
3922;SDS011;1976;51.694;6.256;2023-07-28T04:32:04;0.57;;;0.57;;
3922;SDS011;1976;51.694;6.256;2023-07-28T04:34:33;0.60;;;0.60;;
3922;SDS011;1976;51.694;6.256;2023-07-28T04:36:58;0.50;;;0.50;;
3922;SDS011;1976;51.694;6.256;2023-07-28T04:39:24;0.50;;;0.50;;
3922;SDS011;1976;51.694;6.256;2023-07-28T04:41:50;0.50;;;0.50;;
3922;SDS011;1976;51.694;6.256;2023-07-28T04:44:16;0.50;;;0.50;;
3922;SDS011;1976;51.694;6.256;2023-07-28T04:46:42;0.70;;;0.70;;
3922;SDS011;1976;51.694;6.256;2023-07-28T04:49:08;2.60;;;1.43;;
3922;SDS011;1976;51.694;6.256;2023-07-28T04:51:33;0.60;;;0.60;;
3922;SDS011;1976;51.694;6.256;2023-07-28T04:53:59;0.60;;;0.60;;
3922;SDS011;1976;51.694;6.256;2023-07-28T04:56:24;0.60;;;0.60;;
3922;SDS011;1976;51.694;6.256;2023-07-28T04:58:50;0.60;;;0.60;;
3922;SDS011;1976;51.694;6.256;2023-07-28T05:01:16;0.60;;;0.60;;
3922;SDS011;1976;51.694;6.256;2023-07-28T05:03:41;0.50;;;0.50;;
3922;SDS011;1976;51.694;6.256;2023-07-28T05:06:07;0.50;;;0.50;;
3922;SDS011;1976;51.694;6.256;2023-07-28T05:08:32;0.60;;;0.60;;
3922;SDS011;1976;51.694;6.256;2023-07-28T05:10:58;0.50;;;0.50;;
3922;SDS011;1976;51.694;6.256;2023-07-28T05:13:24;0.60;;;0.60;;
3922;SDS011;1976;51.694;6.256;2023-07-28T05:15:49;0.60;;;0.60;;
3922;SDS011;1976;51.694;6.256;2023-07-28T05:18:15;0.50;;;0.50;;
3922;SDS011;1976;51.694;6.256;2023-07-28T05:20:40;0.60;;;0.60;;
3922;SDS011;1976;51.694;6.256;2023-07-28T05:23:06;0.50;;;0.50;;
3922;SDS011;1976;51.694;6.256;2023-07-28T05:25:32;1.00;;;1.00;;
3922;SDS011;1976;51.694;6.256;2023-07-28T05:27:57;7.53;;;4.00;;
3922;SDS011;1976;51.694;6.256;2023-07-28T05:30:23;0.50;;;0.50;;
3922;SDS011;1976;51.694;6.256;2023-07-28T05:32:48;0.50;;;0.50;;
3922;SDS011;1976;51.694;6.256;2023-07-28T05:35:14;0.50;;;0.50;;
3922;SDS011;1976;51.694;6.256;2023-07-28T05:37:40;0.60;;;0.60;;
3922;SDS011;1976;51.694;6.256;2023-07-28T05:40:06;0.50;;;0.50;;
3922;SDS011;1976;51.694;6.256;2023-07-28T05:42:32;0.50;;;0.50;;
3922;SDS011;1976;51.694;6.256;2023-07-28T05:44:59;0.50;;;0.50;;
3922;SDS011;1976;51.694;6.256;2023-07-28T05:47:24;0.70;;;0.60;;
3922;SDS011;1976;51.694;6.256;2023-07-28T05:49:51;0.50;;;0.50;;
3922;SDS011;1976;51.694;6.256;2023-07-28T05:52:18;0.60;;;0.60;;
3922;SDS011;1976;51.694;6.256;2023-07-28T05:54:44;0.50;;;0.50;;
3922;SDS011;1976;51.694;6.256;2023-07-28T05:57:10;0.50;;;0.50;;
3922;SDS011;1976;51.694;6.256;2023-07-28T05:59:35;0.70;;;0.70;;
3922;SDS011;1976;51.694;6.256;2023-07-28T06:02:01;2.20;;;0.80;;
3922;SDS011;1976;51.694;6.256;2023-07-28T06:04:27;0.60;;;0.60;;
3922;SDS011;1976;51.694;6.256;2023-07-28T06:06:53;0.67;;;0.67;;
3922;SDS011;1976;51.694;6.256;2023-07-28T06:09:18;0.50;;;0.50;;
3922;SDS011;1976;51.694;6.256;2023-07-28T06:11:44;0.60;;;0.60;;
3922;SDS011;1976;51.694;6.256;2023-07-28T06:14:09;0.50;;;0.50;;
3922;SDS011;1976;51.694;6.256;2023-07-28T06:16:35;0.50;;;0.50;;
3922;SDS011;1976;51.694;6.256;2023-07-28T06:19:01;0.90;;;0.90;;
3922;SDS011;1976;51.694;6.256;2023-07-28T06:21:26;0.90;;;0.90;;
3922;SDS011;1976;51.694;6.256;2023-07-28T06:23:52;0.50;;;0.50;;
3922;SDS011;1976;51.694;6.256;2023-07-28T06:26:17;0.50;;;0.50;;
3922;SDS011;1976;51.694;6.256;2023-07-28T06:28:43;0.50;;;0.50;;
3922;SDS011;1976;51.694;6.256;2023-07-28T06:31:09;0.50;;;0.50;;
3922;SDS011;1976;51.694;6.256;2023-07-28T06:33:35;0.90;;;0.90;;
3922;SDS011;1976;51.694;6.256;2023-07-28T06:36:01;0.60;;;0.60;;
3922;SDS011;1976;51.694;6.256;2023-07-28T06:38:28;0.50;;;0.50;;
3922;SDS011;1976;51.694;6.256;2023-07-28T06:40:53;0.50;;;0.50;;
3922;SDS011;1976;51.694;6.256;2023-07-28T06:43:20;0.70;;;0.70;;
3922;SDS011;1976;51.694;6.256;2023-07-28T06:45:46;0.60;;;0.60;;
3922;SDS011;1976;51.694;6.256;2023-07-28T06:48:11;0.60;;;0.60;;
3922;SDS011;1976;51.694;6.256;2023-07-28T06:50:37;0.60;;;0.50;;
3922;SDS011;1976;51.694;6.256;2023-07-28T06:53:03;0.50;;;0.50;;
3922;SDS011;1976;51.694;6.256;2023-07-28T06:55:29;0.50;;;0.50;;
3922;SDS011;1976;51.694;6.256;2023-07-28T06:57:55;0.50;;;0.50;;
3922;SDS011;1976;51.694;6.256;2023-07-28T07:00:21;0.50;;;0.50;;
3922;SDS011;1976;51.694;6.256;2023-07-28T07:02:46;0.50;;;0.50;;
3922;SDS011;1976;51.694;6.256;2023-07-28T07:05:12;0.60;;;0.60;;
3922;SDS011;1976;51.694;6.256;2023-07-28T07:07:38;0.50;;;0.50;;
3922;SDS011;1976;51.694;6.256;2023-07-28T07:10:05;0.50;;;0.50;;
3922;SDS011;1976;51.694;6.256;2023-07-28T07:12:31;0.50;;;0.50;;
3922;SDS011;1976;51.694;6.256;2023-07-28T07:14:57;0.50;;;0.50;;
3922;SDS011;1976;51.694;6.256;2023-07-28T07:17:22;0.70;;;0.70;;
3922;SDS011;1976;51.694;6.256;2023-07-28T07:19:48;2.10;;;2.00;;
3922;SDS011;1976;51.694;6.256;2023-07-28T07:22:14;0.50;;;0.50;;
3922;SDS011;1976;51.694;6.256;2023-07-28T07:24:39;0.50;;;0.50;;
3922;SDS011;1976;51.694;6.256;2023-07-28T07:27:05;0.80;;;0.80;;
3922;SDS011;1976;51.694;6.256;2023-07-28T07:29:31;0.60;;;0.60;;
3922;SDS011;1976;51.694;6.256;2023-07-28T07:31:56;1.00;;;0.90;;
3922;SDS011;1976;51.694;6.256;2023-07-28T07:34:22;0.50;;;0.50;;
3922;SDS011;1976;51.694;6.256;2023-07-28T07:36:49;0.60;;;0.60;;
3922;SDS011;1976;51.694;6.256;2023-07-28T07:39:15;0.80;;;0.80;;
3922;SDS011;1976;51.694;6.256;2023-07-28T07:41:41;0.60;;;0.60;;
3922;SDS011;1976;51.694;6.256;2023-07-28T07:44:06;0.60;;;0.60;;
3922;SDS011;1976;51.694;6.256;2023-07-28T07:46:32;0.60;;;0.60;;
3922;SDS011;1976;51.694;6.256;2023-07-28T07:48:58;0.60;;;0.60;;
3922;SDS011;1976;51.694;6.256;2023-07-28T07:51:24;0.50;;;0.50;;
3922;SDS011;1976;51.694;6.256;2023-07-28T07:53:49;0.50;;;0.50;;
3922;SDS011;1976;51.694;6.256;2023-07-28T07:56:15;0.50;;;0.50;;
3922;SDS011;1976;51.694;6.256;2023-07-28T07:58:41;0.50;;;0.50;;
3922;SDS011;1976;51.694;6.256;2023-07-28T08:01:07;0.50;;;0.50;;
3922;SDS011;1976;51.694;6.256;2023-07-28T08:03:34;0.60;;;0.60;;
3922;SDS011;1976;51.694;6.256;2023-07-28T08:06:01;0.50;;;0.50;;
3922;SDS011;1976;51.694;6.256;2023-07-28T08:08:27;0.50;;;0.50;;
3922;SDS011;1976;51.694;6.256;2023-07-28T08:10:52;0.60;;;0.60;;
3922;SDS011;1976;51.694;6.256;2023-07-28T08:13:18;1.17;;;0.90;;
3922;SDS011;1976;51.694;6.256;2023-07-28T08:15:44;0.50;;;0.50;;
3922;SDS011;1976;51.694;6.256;2023-07-28T08:18:11;0.70;;;0.70;;
3922;SDS011;1976;51.694;6.256;2023-07-28T08:20:37;0.50;;;0.50;;
3922;SDS011;1976;51.694;6.256;2023-07-28T08:23:03;0.50;;;0.50;;
3922;SDS011;1976;51.694;6.256;2023-07-28T08:25:28;0.50;;;0.50;;
3922;SDS011;1976;51.694;6.256;2023-07-28T08:27:54;0.50;;;0.50;;
3922;SDS011;1976;51.694;6.256;2023-07-28T08:30:20;0.67;;;0.67;;
3922;SDS011;1976;51.694;6.256;2023-07-28T08:32:45;1.30;;;1.20;;
3922;SDS011;1976;51.694;6.256;2023-07-28T08:35:11;3.80;;;3.03;;
3922;SDS011;1976;51.694;6.256;2023-07-28T08:37:37;0.50;;;0.50;;
3922;SDS011;1976;51.694;6.256;2023-07-28T08:40:03;0.60;;;0.60;;
3922;SDS011;1976;51.694;6.256;2023-07-28T08:42:30;0.50;;;0.50;;
3922;SDS011;1976;51.694;6.256;2023-07-28T08:45:00;0.50;;;0.50;;
3922;SDS011;1976;51.694;6.256;2023-07-28T08:47:26;0.60;;;0.50;;
3922;SDS011;1976;51.694;6.256;2023-07-28T08:49:51;0.50;;;0.50;;
3922;SDS011;1976;51.694;6.256;2023-07-28T08:52:17;0.50;;;0.50;;
3922;SDS011;1976;51.694;6.256;2023-07-28T08:54:43;0.60;;;0.60;;
3922;SDS011;1976;51.694;6.256;2023-07-28T08:57:09;0.50;;;0.50;;
3922;SDS011;1976;51.694;6.256;2023-07-28T08:59:35;0.50;;;0.50;;
3922;SDS011;1976;51.694;6.256;2023-07-28T09:02:03;1.37;;;0.97;;
3922;SDS011;1976;51.694;6.256;2023-07-28T09:04:30;0.50;;;0.50;;
3922;SDS011;1976;51.694;6.256;2023-07-28T09:06:56;0.50;;;0.50;;
3922;SDS011;1976;51.694;6.256;2023-07-28T09:09:22;0.50;;;0.50;;
3922;SDS011;1976;51.694;6.256;2023-07-28T09:11:51;0.50;;;0.50;;
3922;SDS011;1976;51.694;6.256;2023-07-28T09:14:19;0.50;;;0.50;;
3922;SDS011;1976;51.694;6.256;2023-07-28T09:16:46;0.60;;;0.60;;
3922;SDS011;1976;51.694;6.256;2023-07-28T09:19:12;0.50;;;0.50;;
3922;SDS011;1976;51.694;6.256;2023-07-28T09:21:39;0.50;;;0.50;;
3922;SDS011;1976;51.694;6.256;2023-07-28T09:24:07;0.60;;;0.60;;
3922;SDS011;1976;51.694;6.256;2023-07-28T09:26:41;0.50;;;0.50;;
3922;SDS011;1976;51.694;6.256;2023-07-28T09:29:15;0.50;;;0.50;;
3922;SDS011;1976;51.694;6.256;2023-07-28T09:31:43;0.60;;;0.60;;
3922;SDS011;1976;51.694;6.256;2023-07-28T09:34:09;0.50;;;0.50;;
3922;SDS011;1976;51.694;6.256;2023-07-28T09:36:36;0.50;;;0.50;;
3922;SDS011;1976;51.694;6.256;2023-07-28T09:39:03;0.50;;;0.50;;
3922;SDS011;1976;51.694;6.256;2023-07-28T09:41:33;0.53;;;0.53;;
3922;SDS011;1976;51.694;6.256;2023-07-28T09:44:03;0.50;;;0.50;;
3922;SDS011;1976;51.694;6.256;2023-07-28T09:46:30;0.50;;;0.50;;
3922;SDS011;1976;51.694;6.256;2023-07-28T09:48:59;0.50;;;0.50;;
3922;SDS011;1976;51.694;6.256;2023-07-28T09:51:30;0.60;;;0.60;;
3922;SDS011;1976;51.694;6.256;2023-07-28T09:54:04;0.50;;;0.50;;
3922;SDS011;1976;51.694;6.256;2023-07-28T09:56:34;0.50;;;0.50;;
3922;SDS011;1976;51.694;6.256;2023-07-28T09:59:02;0.50;;;0.50;;
3922;SDS011;1976;51.694;6.256;2023-07-28T10:01:32;0.50;;;0.50;;
3922;SDS011;1976;51.694;6.256;2023-07-28T10:03:58;0.50;;;0.50;;
3922;SDS011;1976;51.694;6.256;2023-07-28T10:06:24;0.50;;;0.50;;
3922;SDS011;1976;51.694;6.256;2023-07-28T10:08:50;0.50;;;0.50;;
3922;SDS011;1976;51.694;6.256;2023-07-28T10:11:16;0.50;;;0.50;;
3922;SDS011;1976;51.694;6.256;2023-07-28T10:13:43;0.50;;;0.50;;
3922;SDS011;1976;51.694;6.256;2023-07-28T10:16:09;0.50;;;0.50;;
3922;SDS011;1976;51.694;6.256;2023-07-28T10:18:35;0.50;;;0.50;;
3922;SDS011;1976;51.694;6.256;2023-07-28T10:21:05;0.50;;;0.50;;
3922;SDS011;1976;51.694;6.256;2023-07-28T10:23:33;0.50;;;0.50;;
3922;SDS011;1976;51.694;6.256;2023-07-28T10:26:02;0.50;;;0.50;;
3922;SDS011;1976;51.694;6.256;2023-07-28T10:28:37;0.50;;;0.50;;
3922;SDS011;1976;51.694;6.256;2023-07-28T10:31:06;0.50;;;0.50;;
3922;SDS011;1976;51.694;6.256;2023-07-28T10:33:43;0.50;;;0.50;;
3922;SDS011;1976;51.694;6.256;2023-07-28T10:38:41;0.50;;;0.50;;
3922;SDS011;1976;51.694;6.256;2023-07-28T10:43:34;4.50;;;4.00;;
3922;SDS011;1976;51.694;6.256;2023-07-28T10:46:00;11.87;;;7.27;;
3922;SDS011;1976;51.694;6.256;2023-07-28T10:48:25;11.17;;;5.80;;
3922;SDS011;1976;51.694;6.256;2023-07-28T10:50:51;7.20;;;6.50;;
3922;SDS011;1976;51.694;6.256;2023-07-28T10:53:17;6.40;;;5.80;;
3922;SDS011;1976;51.694;6.256;2023-07-28T10:55:42;6.03;;;5.43;;
3922;SDS011;1976;51.694;6.256;2023-07-28T10:58:10;9.93;;;6.73;;
3922;SDS011;1976;51.694;6.256;2023-07-28T11:00:35;9.80;;;7.73;;
3922;SDS011;1976;51.694;6.256;2023-07-28T11:03:01;8.63;;;5.67;;
3922;SDS011;1976;51.694;6.256;2023-07-28T11:05:28;8.07;;;6.80;;
3922;SDS011;1976;51.694;6.256;2023-07-28T11:07:55;7.40;;;5.57;;
3922;SDS011;1976;51.694;6.256;2023-07-28T11:10:32;6.00;;;5.00;;
3922;SDS011;1976;51.694;6.256;2023-07-28T11:12:59;5.23;;;4.40;;
3922;SDS011;1976;51.694;6.256;2023-07-28T11:15:30;4.80;;;4.30;;
3922;SDS011;1976;51.694;6.256;2023-07-28T11:17:58;6.10;;;5.40;;
3922;SDS011;1976;51.694;6.256;2023-07-28T11:20:24;8.10;;;5.60;;
3922;SDS011;1976;51.694;6.256;2023-07-28T11:23:01;6.07;;;4.87;;
3922;SDS011;1976;51.694;6.256;2023-07-28T11:25:29;7.03;;;4.97;;
3922;SDS011;1976;51.694;6.256;2023-07-28T11:27:56;21.23;;;4.30;;
3922;SDS011;1976;51.694;6.256;2023-07-28T11:30:23;2.80;;;2.60;;
3922;SDS011;1976;51.694;6.256;2023-07-28T11:32:50;3.77;;;3.13;;
3922;SDS011;1976;51.694;6.256;2023-07-28T11:35:18;4.33;;;2.97;;
3922;SDS011;1976;51.694;6.256;2023-07-28T11:37:45;2.27;;;2.17;;
3922;SDS011;1976;51.694;6.256;2023-07-28T11:40:13;2.90;;;2.70;;
3922;SDS011;1976;51.694;6.256;2023-07-28T11:42:41;3.43;;;3.00;;
3922;SDS011;1976;51.694;6.256;2023-07-28T11:45:10;2.60;;;2.40;;
3922;SDS011;1976;51.694;6.256;2023-07-28T11:47:38;4.83;;;2.93;;
3922;SDS011;1976;51.694;6.256;2023-07-28T11:50:03;5.33;;;4.07;;
3922;SDS011;1976;51.694;6.256;2023-07-28T11:52:30;5.17;;;4.67;;
3922;SDS011;1976;51.694;6.256;2023-07-28T11:54:56;5.17;;;4.60;;
3922;SDS011;1976;51.694;6.256;2023-07-28T11:57:24;5.07;;;4.63;;
3922;SDS011;1976;51.694;6.256;2023-07-28T11:59:56;4.47;;;4.07;;
3922;SDS011;1976;51.694;6.256;2023-07-28T12:02:28;4.27;;;3.97;;
3922;SDS011;1976;51.694;6.256;2023-07-28T12:04:55;6.33;;;4.33;;
3922;SDS011;1976;51.694;6.256;2023-07-28T12:07:31;6.03;;;4.70;;
3922;SDS011;1976;51.694;6.256;2023-07-28T12:09:57;5.20;;;3.77;;
3922;SDS011;1976;51.694;6.256;2023-07-28T12:12:30;4.10;;;3.77;;
3922;SDS011;1976;51.694;6.256;2023-07-28T12:15:17;7.03;;;3.80;;
3922;SDS011;1976;51.694;6.256;2023-07-28T12:17:43;3.47;;;3.17;;
3922;SDS011;1976;51.694;6.256;2023-07-28T12:23:15;2.73;;;2.53;;
3922;SDS011;1976;51.694;6.256;2023-07-28T12:25:42;2.13;;;2.03;;
3922;SDS011;1976;51.694;6.256;2023-07-28T12:28:09;1.50;;;1.40;;
3922;SDS011;1976;51.694;6.256;2023-07-28T12:30:36;1.40;;;1.30;;
3922;SDS011;1976;51.694;6.256;2023-07-28T12:33:02;5.73;;;1.83;;
3922;SDS011;1976;51.694;6.256;2023-07-28T12:35:32;1.30;;;1.30;;
3922;SDS011;1976;51.694;6.256;2023-07-28T12:38:02;1.50;;;1.40;;
3922;SDS011;1976;51.694;6.256;2023-07-28T12:40:30;1.10;;;1.10;;
3922;SDS011;1976;51.694;6.256;2023-07-28T12:42:57;1.47;;;1.37;;
3922;SDS011;1976;51.694;6.256;2023-07-28T12:45:24;1.70;;;1.60;;
3922;SDS011;1976;51.694;6.256;2023-07-28T12:47:50;3.67;;;1.63;;
3922;SDS011;1976;51.694;6.256;2023-07-28T12:50:19;1.50;;;1.40;;
3922;SDS011;1976;51.694;6.256;2023-07-28T12:52:46;1.80;;;1.67;;
3922;SDS011;1976;51.694;6.256;2023-07-28T12:55:16;1.30;;;1.20;;
3922;SDS011;1976;51.694;6.256;2023-07-28T12:57:42;1.50;;;1.40;;
3922;SDS011;1976;51.694;6.256;2023-07-28T13:00:09;1.50;;;1.40;;
3922;SDS011;1976;51.694;6.256;2023-07-28T13:02:41;1.20;;;1.20;;
3922;SDS011;1976;51.694;6.256;2023-07-28T13:05:09;1.10;;;1.10;;
3922;SDS011;1976;51.694;6.256;2023-07-28T13:07:36;1.10;;;1.10;;
3922;SDS011;1976;51.694;6.256;2023-07-28T13:10:02;1.43;;;1.33;;
3922;SDS011;1976;51.694;6.256;2023-07-28T13:12:28;1.13;;;1.00;;
3922;SDS011;1976;51.694;6.256;2023-07-28T13:14:54;1.30;;;1.20;;
3922;SDS011;1976;51.694;6.256;2023-07-28T13:17:20;3.70;;;1.30;;
3922;SDS011;1976;51.694;6.256;2023-07-28T13:19:46;3.37;;;1.40;;
3922;SDS011;1976;51.694;6.256;2023-07-28T13:22:11;1.20;;;1.20;;
3922;SDS011;1976;51.694;6.256;2023-07-28T13:24:37;1.40;;;1.30;;
3922;SDS011;1976;51.694;6.256;2023-07-28T13:27:03;4.60;;;1.33;;
3922;SDS011;1976;51.694;6.256;2023-07-28T13:29:29;1.90;;;1.13;;
3922;SDS011;1976;51.694;6.256;2023-07-28T13:31:57;1.30;;;1.20;;
3922;SDS011;1976;51.694;6.256;2023-07-28T13:34:25;1.30;;;1.20;;
3922;SDS011;1976;51.694;6.256;2023-07-28T13:36:51;1.23;;;1.13;;
3922;SDS011;1976;51.694;6.256;2023-07-28T13:39:16;1.00;;;1.00;;
3922;SDS011;1976;51.694;6.256;2023-07-28T13:41:42;4.30;;;1.30;;
3922;SDS011;1976;51.694;6.256;2023-07-28T13:44:08;1.00;;;1.00;;
3922;SDS011;1976;51.694;6.256;2023-07-28T13:46:33;4.23;;;1.20;;
3922;SDS011;1976;51.694;6.256;2023-07-28T13:48:59;1.20;;;1.10;;
3922;SDS011;1976;51.694;6.256;2023-07-28T13:51:25;1.20;;;1.10;;
3922;SDS011;1976;51.694;6.256;2023-07-28T13:53:50;2.30;;;1.20;;
3922;SDS011;1976;51.694;6.256;2023-07-28T13:56:16;1.10;;;1.10;;
3922;SDS011;1976;51.694;6.256;2023-07-28T13:58:41;1.10;;;1.10;;
3922;SDS011;1976;51.694;6.256;2023-07-28T14:01:07;1.70;;;1.60;;
3922;SDS011;1976;51.694;6.256;2023-07-28T14:03:33;1.10;;;1.10;;
3922;SDS011;1976;51.694;6.256;2023-07-28T14:05:58;1.33;;;1.17;;
3922;SDS011;1976;51.694;6.256;2023-07-28T14:08:24;4.90;;;1.40;;
3922;SDS011;1976;51.694;6.256;2023-07-28T14:10:50;2.23;;;1.50;;
3922;SDS011;1976;51.694;6.256;2023-07-28T14:13:16;1.10;;;1.00;;
3922;SDS011;1976;51.694;6.256;2023-07-28T14:15:42;2.50;;;1.33;;
3922;SDS011;1976;51.694;6.256;2023-07-28T14:18:07;1.80;;;1.47;;
3922;SDS011;1976;51.694;6.256;2023-07-28T14:20:33;1.10;;;1.10;;
3922;SDS011;1976;51.694;6.256;2023-07-28T14:22:59;1.23;;;1.13;;
3922;SDS011;1976;51.694;6.256;2023-07-28T14:25:27;1.70;;;1.30;;
3922;SDS011;1976;51.694;6.256;2023-07-28T14:27:53;1.87;;;1.60;;
3922;SDS011;1976;51.694;6.256;2023-07-28T14:30:19;2.93;;;1.40;;
3922;SDS011;1976;51.694;6.256;2023-07-28T14:32:44;1.60;;;1.47;;
3922;SDS011;1976;51.694;6.256;2023-07-28T14:35:10;1.50;;;1.40;;
3922;SDS011;1976;51.694;6.256;2023-07-28T14:37:35;1.67;;;1.57;;
3922;SDS011;1976;51.694;6.256;2023-07-28T14:40:01;0.90;;;0.90;;
3922;SDS011;1976;51.694;6.256;2023-07-28T14:42:27;1.20;;;1.10;;
3922;SDS011;1976;51.694;6.256;2023-07-28T14:44:52;1.20;;;1.03;;
3922;SDS011;1976;51.694;6.256;2023-07-28T14:47:18;1.20;;;1.10;;
3922;SDS011;1976;51.694;6.256;2023-07-28T14:49:44;1.00;;;1.00;;
3922;SDS011;1976;51.694;6.256;2023-07-28T14:52:09;1.77;;;1.00;;
3922;SDS011;1976;51.694;6.256;2023-07-28T14:54:35;2.50;;;1.33;;
3922;SDS011;1976;51.694;6.256;2023-07-28T14:57:00;1.77;;;1.40;;
3922;SDS011;1976;51.694;6.256;2023-07-28T14:59:26;1.20;;;1.20;;
3922;SDS011;1976;51.694;6.256;2023-07-28T15:01:51;1.00;;;1.00;;
3922;SDS011;1976;51.694;6.256;2023-07-28T15:04:17;2.40;;;1.60;;
3922;SDS011;1976;51.694;6.256;2023-07-28T15:06:43;1.20;;;1.10;;
3922;SDS011;1976;51.694;6.256;2023-07-28T15:09:08;1.40;;;1.30;;
3922;SDS011;1976;51.694;6.256;2023-07-28T15:11:34;2.17;;;1.50;;
3922;SDS011;1976;51.694;6.256;2023-07-28T15:13:59;1.53;;;1.40;;
3922;SDS011;1976;51.694;6.256;2023-07-28T15:16:25;1.50;;;1.40;;
3922;SDS011;1976;51.694;6.256;2023-07-28T15:18:51;2.07;;;1.80;;
3922;SDS011;1976;51.694;6.256;2023-07-28T15:21:16;1.63;;;1.53;;
3922;SDS011;1976;51.694;6.256;2023-07-28T15:23:42;1.70;;;1.50;;